sensor_id;sensor_type;location;lat;lon;timestamp;temperature;humidity
32348;DHT22;18821;44.800;10.326;2023-06-24T00:00:07;25.50;99.90
32348;DHT22;18821;44.800;10.326;2023-06-24T00:02:34;25.50;99.90
32348;DHT22;18821;44.800;10.326;2023-06-24T00:05:03;25.40;99.90
32348;DHT22;18821;44.800;10.326;2023-06-24T00:07:29;25.40;99.90
32348;DHT22;18821;44.800;10.326;2023-06-24T00:09:55;25.30;99.90
32348;DHT22;18821;44.800;10.326;2023-06-24T00:12:21;25.30;99.90
32348;DHT22;18821;44.800;10.326;2023-06-24T00:14:48;25.30;99.90
32348;DHT22;18821;44.800;10.326;2023-06-24T00:17:14;25.30;99.90
32348;DHT22;18821;44.800;10.326;2023-06-24T00:19:42;25.20;99.90
32348;DHT22;18821;44.800;10.326;2023-06-24T00:22:09;25.10;99.90
32348;DHT22;18821;44.800;10.326;2023-06-24T00:24:35;25.00;99.90
32348;DHT22;18821;44.800;10.326;2023-06-24T00:27:01;25.00;99.90
32348;DHT22;18821;44.800;10.326;2023-06-24T00:29:27;24.90;99.90
32348;DHT22;18821;44.800;10.326;2023-06-24T00:31:54;24.90;99.90
32348;DHT22;18821;44.800;10.326;2023-06-24T00:34:20;24.90;99.90
32348;DHT22;18821;44.800;10.326;2023-06-24T00:36:46;25.00;99.90
32348;DHT22;18821;44.800;10.326;2023-06-24T00:39:12;24.90;99.90
32348;DHT22;18821;44.800;10.326;2023-06-24T00:41:38;24.90;99.90
32348;DHT22;18821;44.800;10.326;2023-06-24T00:44:04;24.90;99.90
32348;DHT22;18821;44.800;10.326;2023-06-24T00:46:31;24.90;99.90
32348;DHT22;18821;44.800;10.326;2023-06-24T00:49:00;24.90;99.90
32348;DHT22;18821;44.800;10.326;2023-06-24T00:51:29;24.90;99.90
32348;DHT22;18821;44.800;10.326;2023-06-24T00:54:00;24.80;99.90
32348;DHT22;18821;44.800;10.326;2023-06-24T00:56:33;24.80;99.90
32348;DHT22;18821;44.800;10.326;2023-06-24T00:59:00;24.70;99.90
32348;DHT22;18821;44.800;10.326;2023-06-24T01:01:33;24.70;99.90
32348;DHT22;18821;44.800;10.326;2023-06-24T01:04:00;24.70;99.90
32348;DHT22;18821;44.800;10.326;2023-06-24T01:06:27;24.70;99.90
32348;DHT22;18821;44.800;10.326;2023-06-24T01:09:00;24.60;99.90
32348;DHT22;18821;44.800;10.326;2023-06-24T01:11:29;24.60;99.90
32348;DHT22;18821;44.800;10.326;2023-06-24T01:13:56;24.40;99.90
32348;DHT22;18821;44.800;10.326;2023-06-24T01:19:49;24.30;99.90
32348;DHT22;18821;44.800;10.326;2023-06-24T01:22:14;24.30;99.90
32348;DHT22;18821;44.800;10.326;2023-06-24T01:27:31;24.30;99.90
32348;DHT22;18821;44.800;10.326;2023-06-24T01:30:42;24.30;99.90
32348;DHT22;18821;44.800;10.326;2023-06-24T01:33:15;24.20;99.90
32348;DHT22;18821;44.800;10.326;2023-06-24T01:35:43;24.10;99.90
32348;DHT22;18821;44.800;10.326;2023-06-24T01:38:23;24.10;99.90
32348;DHT22;18821;44.800;10.326;2023-06-24T01:40:51;23.90;99.90
32348;DHT22;18821;44.800;10.326;2023-06-24T01:43:18;23.80;99.90
32348;DHT22;18821;44.800;10.326;2023-06-24T01:45:50;23.80;99.90
32348;DHT22;18821;44.800;10.326;2023-06-24T01:48:24;23.70;99.90
32348;DHT22;18821;44.800;10.326;2023-06-24T01:50:59;23.70;99.90
32348;DHT22;18821;44.800;10.326;2023-06-24T01:53:27;23.70;99.90
32348;DHT22;18821;44.800;10.326;2023-06-24T01:55:57;23.60;99.90
32348;DHT22;18821;44.800;10.326;2023-06-24T01:58:25;23.60;99.90
32348;DHT22;18821;44.800;10.326;2023-06-24T02:00:52;23.60;99.90
32348;DHT22;18821;44.800;10.326;2023-06-24T02:03:18;23.60;99.90
32348;DHT22;18821;44.800;10.326;2023-06-24T02:05:46;23.50;99.90
32348;DHT22;18821;44.800;10.326;2023-06-24T02:08:13;23.20;99.90
32348;DHT22;18821;44.800;10.326;2023-06-24T02:10:40;22.80;99.90
32348;DHT22;18821;44.800;10.326;2023-06-24T02:13:08;22.80;99.90
32348;DHT22;18821;44.800;10.326;2023-06-24T02:15:38;22.90;99.90
32348;DHT22;18821;44.800;10.326;2023-06-24T02:18:06;22.90;99.90
32348;DHT22;18821;44.800;10.326;2023-06-24T02:20:36;22.90;99.90
32348;DHT22;18821;44.800;10.326;2023-06-24T02:23:06;22.80;99.90
32348;DHT22;18821;44.800;10.326;2023-06-24T02:25:34;22.80;99.90
32348;DHT22;18821;44.800;10.326;2023-06-24T02:28:02;22.80;99.90
32348;DHT22;18821;44.800;10.326;2023-06-24T02:30:28;22.60;99.90
32348;DHT22;18821;44.800;10.326;2023-06-24T02:32:54;22.50;99.90
32348;DHT22;18821;44.800;10.326;2023-06-24T02:35:20;22.40;99.90
32348;DHT22;18821;44.800;10.326;2023-06-24T02:37:46;22.40;99.90
32348;DHT22;18821;44.800;10.326;2023-06-24T02:40:15;22.40;99.90
32348;DHT22;18821;44.800;10.326;2023-06-24T02:42:41;22.40;99.90
32348;DHT22;18821;44.800;10.326;2023-06-24T02:45:08;22.40;99.90
32348;DHT22;18821;44.800;10.326;2023-06-24T02:47:36;22.40;99.90
32348;DHT22;18821;44.800;10.326;2023-06-24T02:50:05;22.30;99.90
32348;DHT22;18821;44.800;10.326;2023-06-24T02:52:33;22.30;99.90
32348;DHT22;18821;44.800;10.326;2023-06-24T02:55:02;22.10;99.90
32348;DHT22;18821;44.800;10.326;2023-06-24T02:57:47;22.10;99.90
32348;DHT22;18821;44.800;10.326;2023-06-24T03:00:39;22.10;99.90
32348;DHT22;18821;44.800;10.326;2023-06-24T03:03:09;22.20;99.90
32348;DHT22;18821;44.800;10.326;2023-06-24T03:05:41;22.10;99.90
32348;DHT22;18821;44.800;10.326;2023-06-24T03:08:11;22.00;99.90
32348;DHT22;18821;44.800;10.326;2023-06-24T03:10:37;22.10;99.90
32348;DHT22;18821;44.800;10.326;2023-06-24T03:13:06;22.00;99.90
32348;DHT22;18821;44.800;10.326;2023-06-24T03:15:41;21.70;99.90
32348;DHT22;18821;44.800;10.326;2023-06-24T03:18:07;21.70;99.90
32348;DHT22;18821;44.800;10.326;2023-06-24T03:20:33;21.70;99.90
32348;DHT22;18821;44.800;10.326;2023-06-24T03:23:07;21.70;99.90
32348;DHT22;18821;44.800;10.326;2023-06-24T03:25:34;21.70;99.90
32348;DHT22;18821;44.800;10.326;2023-06-24T03:28:01;21.80;99.90
32348;DHT22;18821;44.800;10.326;2023-06-24T03:30:30;21.80;99.90
32348;DHT22;18821;44.800;10.326;2023-06-24T03:32:57;21.80;99.90
32348;DHT22;18821;44.800;10.326;2023-06-24T03:35:23;21.80;99.90
32348;DHT22;18821;44.800;10.326;2023-06-24T03:37:50;21.80;99.90
32348;DHT22;18821;44.800;10.326;2023-06-24T03:40:16;21.80;99.90
32348;DHT22;18821;44.800;10.326;2023-06-24T03:42:42;21.80;99.90
32348;DHT22;18821;44.800;10.326;2023-06-24T03:45:08;21.70;99.90
32348;DHT22;18821;44.800;10.326;2023-06-24T03:47:34;21.80;99.90
32348;DHT22;18821;44.800;10.326;2023-06-24T03:50:00;21.80;99.90
32348;DHT22;18821;44.800;10.326;2023-06-24T03:52:26;21.70;99.90
32348;DHT22;18821;44.800;10.326;2023-06-24T03:54:52;21.50;99.90
32348;DHT22;18821;44.800;10.326;2023-06-24T03:57:19;21.50;99.90
32348;DHT22;18821;44.800;10.326;2023-06-24T03:59:45;21.60;99.90
32348;DHT22;18821;44.800;10.326;2023-06-24T04:02:11;21.60;99.90
32348;DHT22;18821;44.800;10.326;2023-06-24T04:04:39;21.70;99.90
32348;DHT22;18821;44.800;10.326;2023-06-24T04:07:05;21.70;99.90
32348;DHT22;18821;44.800;10.326;2023-06-24T04:09:34;21.80;99.90
32348;DHT22;18821;44.800;10.326;2023-06-24T04:12:04;21.90;99.90
32348;DHT22;18821;44.800;10.326;2023-06-24T04:14:33;22.00;99.90
32348;DHT22;18821;44.800;10.326;2023-06-24T04:16:59;22.00;99.90
32348;DHT22;18821;44.800;10.326;2023-06-24T04:19:25;22.10;99.90
32348;DHT22;18821;44.800;10.326;2023-06-24T04:21:51;22.10;99.90
32348;DHT22;18821;44.800;10.326;2023-06-24T04:24:17;22.20;99.90
32348;DHT22;18821;44.800;10.326;2023-06-24T04:26:43;22.30;99.90
32348;DHT22;18821;44.800;10.326;2023-06-24T04:29:09;22.40;99.90
32348;DHT22;18821;44.800;10.326;2023-06-24T04:31:37;22.50;99.90
32348;DHT22;18821;44.800;10.326;2023-06-24T04:34:04;22.50;99.90
32348;DHT22;18821;44.800;10.326;2023-06-24T04:36:31;22.40;99.90
32348;DHT22;18821;44.800;10.326;2023-06-24T04:38:57;22.50;99.90
32348;DHT22;18821;44.800;10.326;2023-06-24T04:41:23;22.60;99.90
32348;DHT22;18821;44.800;10.326;2023-06-24T04:43:49;22.60;99.90
32348;DHT22;18821;44.800;10.326;2023-06-24T04:46:15;22.60;99.90
32348;DHT22;18821;44.800;10.326;2023-06-24T04:48:41;22.50;99.90
32348;DHT22;18821;44.800;10.326;2023-06-24T04:51:07;22.70;99.90
32348;DHT22;18821;44.800;10.326;2023-06-24T04:53:33;22.80;99.90
32348;DHT22;18821;44.800;10.326;2023-06-24T04:55:59;22.90;99.90
32348;DHT22;18821;44.800;10.326;2023-06-24T04:58:25;22.90;99.90
32348;DHT22;18821;44.800;10.326;2023-06-24T05:00:51;23.00;99.90
32348;DHT22;18821;44.800;10.326;2023-06-24T05:03:17;23.00;99.90
32348;DHT22;18821;44.800;10.326;2023-06-24T05:05:43;23.10;99.90
32348;DHT22;18821;44.800;10.326;2023-06-24T05:08:09;23.10;99.90
32348;DHT22;18821;44.800;10.326;2023-06-24T05:10:35;23.30;99.90
32348;DHT22;18821;44.800;10.326;2023-06-24T05:13:01;23.40;99.90
32348;DHT22;18821;44.800;10.326;2023-06-24T05:15:27;23.50;99.90
32348;DHT22;18821;44.800;10.326;2023-06-24T05:17:52;23.50;99.90
32348;DHT22;18821;44.800;10.326;2023-06-24T05:20:18;23.60;99.90
32348;DHT22;18821;44.800;10.326;2023-06-24T05:22:44;23.80;99.90
32348;DHT22;18821;44.800;10.326;2023-06-24T05:25:10;23.90;99.90
32348;DHT22;18821;44.800;10.326;2023-06-24T05:27:36;24.20;99.90
32348;DHT22;18821;44.800;10.326;2023-06-24T05:30:02;24.30;99.90
32348;DHT22;18821;44.800;10.326;2023-06-24T05:32:28;24.50;99.90
32348;DHT22;18821;44.800;10.326;2023-06-24T05:34:54;24.80;99.90
32348;DHT22;18821;44.800;10.326;2023-06-24T05:37:20;25.10;99.90
32348;DHT22;18821;44.800;10.326;2023-06-24T05:39:46;25.20;99.90
32348;DHT22;18821;44.800;10.326;2023-06-24T05:42:12;25.50;99.90
32348;DHT22;18821;44.800;10.326;2023-06-24T05:44:37;25.90;99.90
32348;DHT22;18821;44.800;10.326;2023-06-24T05:47:03;26.50;99.90
32348;DHT22;18821;44.800;10.326;2023-06-24T05:49:29;26.90;99.90
32348;DHT22;18821;44.800;10.326;2023-06-24T05:51:56;27.10;99.90
32348;DHT22;18821;44.800;10.326;2023-06-24T05:54:22;27.10;99.90
32348;DHT22;18821;44.800;10.326;2023-06-24T05:56:48;27.30;99.90
32348;DHT22;18821;44.800;10.326;2023-06-24T05:59:14;27.50;99.90
32348;DHT22;18821;44.800;10.326;2023-06-24T06:01:40;27.90;99.90
32348;DHT22;18821;44.800;10.326;2023-06-24T06:04:06;27.90;99.90
32348;DHT22;18821;44.800;10.326;2023-06-24T06:06:31;28.40;99.90
32348;DHT22;18821;44.800;10.326;2023-06-24T06:08:58;28.30;99.90
32348;DHT22;18821;44.800;10.326;2023-06-24T06:11:24;28.50;99.90
32348;DHT22;18821;44.800;10.326;2023-06-24T06:13:50;28.30;99.90
32348;DHT22;18821;44.800;10.326;2023-06-24T06:16:18;28.20;99.90
32348;DHT22;18821;44.800;10.326;2023-06-24T06:18:44;28.00;99.90
32348;DHT22;18821;44.800;10.326;2023-06-24T06:21:10;28.20;99.90
32348;DHT22;18821;44.800;10.326;2023-06-24T06:23:36;28.30;99.90
32348;DHT22;18821;44.800;10.326;2023-06-24T06:26:02;28.50;99.90
32348;DHT22;18821;44.800;10.326;2023-06-24T06:28:28;28.70;99.90
32348;DHT22;18821;44.800;10.326;2023-06-24T06:30:54;28.90;99.90
32348;DHT22;18821;44.800;10.326;2023-06-24T06:33:20;29.00;99.90
32348;DHT22;18821;44.800;10.326;2023-06-24T06:35:46;28.80;99.90
32348;DHT22;18821;44.800;10.326;2023-06-24T06:38:12;28.80;99.90
32348;DHT22;18821;44.800;10.326;2023-06-24T06:40:38;28.70;99.90
32348;DHT22;18821;44.800;10.326;2023-06-24T06:43:04;28.80;99.90
32348;DHT22;18821;44.800;10.326;2023-06-24T06:45:30;28.90;99.90
32348;DHT22;18821;44.800;10.326;2023-06-24T06:47:55;28.90;99.90
32348;DHT22;18821;44.800;10.326;2023-06-24T06:50:21;28.70;99.90
32348;DHT22;18821;44.800;10.326;2023-06-24T06:52:47;28.60;99.90
32348;DHT22;18821;44.800;10.326;2023-06-24T06:55:13;28.90;99.90
32348;DHT22;18821;44.800;10.326;2023-06-24T06:57:39;29.10;99.90
32348;DHT22;18821;44.800;10.326;2023-06-24T07:00:05;28.80;99.90
32348;DHT22;18821;44.800;10.326;2023-06-24T07:02:32;28.80;99.90
32348;DHT22;18821;44.800;10.326;2023-06-24T07:04:57;28.70;99.90
32348;DHT22;18821;44.800;10.326;2023-06-24T07:07:25;28.60;99.90
32348;DHT22;18821;44.800;10.326;2023-06-24T07:09:50;28.60;99.90
32348;DHT22;18821;44.800;10.326;2023-06-24T07:12:17;28.50;99.90
32348;DHT22;18821;44.800;10.326;2023-06-24T07:14:43;28.50;99.90
32348;DHT22;18821;44.800;10.326;2023-06-24T07:17:09;28.00;99.90
32348;DHT22;18821;44.800;10.326;2023-06-24T07:19:34;28.00;99.90
32348;DHT22;18821;44.800;10.326;2023-06-24T07:22:00;28.00;99.90
32348;DHT22;18821;44.800;10.326;2023-06-24T07:24:26;28.20;99.90
32348;DHT22;18821;44.800;10.326;2023-06-24T07:26:52;28.40;99.90
32348;DHT22;18821;44.800;10.326;2023-06-24T07:29:18;28.30;99.90
32348;DHT22;18821;44.800;10.326;2023-06-24T07:31:44;28.30;99.90
32348;DHT22;18821;44.800;10.326;2023-06-24T07:34:10;28.40;99.90
32348;DHT22;18821;44.800;10.326;2023-06-24T07:36:36;28.50;99.90
32348;DHT22;18821;44.800;10.326;2023-06-24T07:39:02;28.40;99.90
32348;DHT22;18821;44.800;10.326;2023-06-24T07:41:28;28.30;99.90
32348;DHT22;18821;44.800;10.326;2023-06-24T07:43:54;28.30;99.90
32348;DHT22;18821;44.800;10.326;2023-06-24T07:46:20;28.30;99.90
32348;DHT22;18821;44.800;10.326;2023-06-24T07:48:46;28.20;99.90
32348;DHT22;18821;44.800;10.326;2023-06-24T07:51:12;28.40;99.90
32348;DHT22;18821;44.800;10.326;2023-06-24T07:53:38;28.40;99.90
32348;DHT22;18821;44.800;10.326;2023-06-24T07:56:04;28.50;99.90
32348;DHT22;18821;44.800;10.326;2023-06-24T07:58:30;28.70;99.90
32348;DHT22;18821;44.800;10.326;2023-06-24T08:00:56;28.70;99.90
32348;DHT22;18821;44.800;10.326;2023-06-24T08:03:22;28.90;99.90
32348;DHT22;18821;44.800;10.326;2023-06-24T08:05:48;28.80;99.90
32348;DHT22;18821;44.800;10.326;2023-06-24T08:08:15;28.90;99.90
32348;DHT22;18821;44.800;10.326;2023-06-24T08:10:41;28.90;99.90
32348;DHT22;18821;44.800;10.326;2023-06-24T08:13:07;28.90;99.90
32348;DHT22;18821;44.800;10.326;2023-06-24T08:15:33;28.70;99.90
32348;DHT22;18821;44.800;10.326;2023-06-24T08:17:59;28.90;99.90
32348;DHT22;18821;44.800;10.326;2023-06-24T08:20:25;29.00;99.90
32348;DHT22;18821;44.800;10.326;2023-06-24T08:22:51;29.10;99.90
32348;DHT22;18821;44.800;10.326;2023-06-24T08:25:17;29.20;99.90
32348;DHT22;18821;44.800;10.326;2023-06-24T08:27:43;29.30;99.90
32348;DHT22;18821;44.800;10.326;2023-06-24T08:30:13;28.90;99.90
32348;DHT22;18821;44.800;10.326;2023-06-24T08:32:41;29.10;99.90
32348;DHT22;18821;44.800;10.326;2023-06-24T08:35:08;29.30;99.90
32348;DHT22;18821;44.800;10.326;2023-06-24T08:37:35;29.50;99.90
32348;DHT22;18821;44.800;10.326;2023-06-24T08:40:01;29.50;99.90
32348;DHT22;18821;44.800;10.326;2023-06-24T08:42:30;29.40;99.90
32348;DHT22;18821;44.800;10.326;2023-06-24T08:44:56;29.40;99.90
32348;DHT22;18821;44.800;10.326;2023-06-24T08:47:24;29.20;99.90
32348;DHT22;18821;44.800;10.326;2023-06-24T08:50:03;29.40;99.90
32348;DHT22;18821;44.800;10.326;2023-06-24T08:52:32;29.50;99.90
32348;DHT22;18821;44.800;10.326;2023-06-24T08:55:01;29.60;99.90
32348;DHT22;18821;44.800;10.326;2023-06-24T08:57:28;29.70;99.90
32348;DHT22;18821;44.800;10.326;2023-06-24T08:59:54;29.90;99.90
32348;DHT22;18821;44.800;10.326;2023-06-24T09:02:20;29.70;99.90
32348;DHT22;18821;44.800;10.326;2023-06-24T09:04:46;29.60;99.90
32348;DHT22;18821;44.800;10.326;2023-06-24T09:07:12;29.30;99.90
32348;DHT22;18821;44.800;10.326;2023-06-24T09:09:43;29.50;99.90
32348;DHT22;18821;44.800;10.326;2023-06-24T09:12:14;29.80;99.90
32348;DHT22;18821;44.800;10.326;2023-06-24T09:14:40;29.80;99.90
32348;DHT22;18821;44.800;10.326;2023-06-24T09:17:07;30.00;99.90
32348;DHT22;18821;44.800;10.326;2023-06-24T09:19:35;30.30;99.90
32348;DHT22;18821;44.800;10.326;2023-06-24T09:22:09;30.40;99.90
32348;DHT22;18821;44.800;10.326;2023-06-24T09:24:42;30.30;99.90
32348;DHT22;18821;44.800;10.326;2023-06-24T09:27:08;30.40;99.90
32348;DHT22;18821;44.800;10.326;2023-06-24T09:29:37;30.40;99.90
32348;DHT22;18821;44.800;10.326;2023-06-24T09:32:06;29.80;99.90
32348;DHT22;18821;44.800;10.326;2023-06-24T09:34:32;29.80;99.90
32348;DHT22;18821;44.800;10.326;2023-06-24T09:36:59;29.90;99.90
32348;DHT22;18821;44.800;10.326;2023-06-24T09:39:27;29.90;99.90
32348;DHT22;18821;44.800;10.326;2023-06-24T09:41:57;30.00;99.90
32348;DHT22;18821;44.800;10.326;2023-06-24T09:44:24;30.00;99.90
32348;DHT22;18821;44.800;10.326;2023-06-24T09:46:49;30.10;99.90
32348;DHT22;18821;44.800;10.326;2023-06-24T09:49:15;29.80;99.90
32348;DHT22;18821;44.800;10.326;2023-06-24T09:51:46;30.00;99.90
32348;DHT22;18821;44.800;10.326;2023-06-24T09:54:14;30.10;99.90
32348;DHT22;18821;44.800;10.326;2023-06-24T09:56:45;30.20;99.90
32348;DHT22;18821;44.800;10.326;2023-06-24T09:59:12;29.90;99.60
32348;DHT22;18821;44.800;10.326;2023-06-24T10:01:40;29.70;99.10
32348;DHT22;18821;44.800;10.326;2023-06-24T10:04:07;29.90;99.40
32348;DHT22;18821;44.800;10.326;2023-06-24T10:06:34;30.10;98.00
32348;DHT22;18821;44.800;10.326;2023-06-24T10:09:01;30.30;98.50
32348;DHT22;18821;44.800;10.326;2023-06-24T10:11:27;30.60;98.70
32348;DHT22;18821;44.800;10.326;2023-06-24T10:13:53;30.70;98.90
32348;DHT22;18821;44.800;10.326;2023-06-24T10:16:20;30.50;98.90
32348;DHT22;18821;44.800;10.326;2023-06-24T10:18:46;29.80;98.10
32348;DHT22;18821;44.800;10.326;2023-06-24T10:21:13;29.90;99.40
32348;DHT22;18821;44.800;10.326;2023-06-24T10:26:29;30.10;98.60
32348;DHT22;18821;44.800;10.326;2023-06-24T10:37:09;30.40;98.40
32348;DHT22;18821;44.800;10.326;2023-06-24T10:39:56;30.00;98.90
32348;DHT22;18821;44.800;10.326;2023-06-24T10:47:38;30.40;99.20
32348;DHT22;18821;44.800;10.326;2023-06-24T10:50:05;30.70;99.60
32348;DHT22;18821;44.800;10.326;2023-06-24T10:52:32;30.80;99.20
32348;DHT22;18821;44.800;10.326;2023-06-24T10:54:58;30.90;99.00
32348;DHT22;18821;44.800;10.326;2023-06-24T10:57:26;31.00;98.60
32348;DHT22;18821;44.800;10.326;2023-06-24T10:59:54;31.00;98.40
32348;DHT22;18821;44.800;10.326;2023-06-24T11:02:22;31.00;98.70
32348;DHT22;18821;44.800;10.326;2023-06-24T11:07:18;31.00;98.60
32348;DHT22;18821;44.800;10.326;2023-06-24T11:10:04;31.00;98.60
32348;DHT22;18821;44.800;10.326;2023-06-24T11:12:35;30.80;97.80
32348;DHT22;18821;44.800;10.326;2023-06-24T11:15:06;30.80;98.90
32348;DHT22;18821;44.800;10.326;2023-06-24T11:17:34;31.00;99.20
32348;DHT22;18821;44.800;10.326;2023-06-24T11:20:01;31.20;99.50
32348;DHT22;18821;44.800;10.326;2023-06-24T11:22:28;31.50;99.10
32348;DHT22;18821;44.800;10.326;2023-06-24T11:24:55;31.50;98.80
32348;DHT22;18821;44.800;10.326;2023-06-24T11:27:29;31.50;99.00
32348;DHT22;18821;44.800;10.326;2023-06-24T11:29:58;31.40;98.10
32348;DHT22;18821;44.800;10.326;2023-06-24T11:32:35;31.30;98.10
32348;DHT22;18821;44.800;10.326;2023-06-24T11:35:01;31.40;98.50
32348;DHT22;18821;44.800;10.326;2023-06-24T11:37:31;31.60;98.50
32348;DHT22;18821;44.800;10.326;2023-06-24T11:40:02;31.50;98.40
32348;DHT22;18821;44.800;10.326;2023-06-24T11:42:31;31.50;99.00
32348;DHT22;18821;44.800;10.326;2023-06-24T11:45:05;31.40;98.60
32348;DHT22;18821;44.800;10.326;2023-06-24T11:47:35;31.60;99.20
32348;DHT22;18821;44.800;10.326;2023-06-24T11:50:02;31.60;98.40
32348;DHT22;18821;44.800;10.326;2023-06-24T11:52:38;31.60;96.90
32348;DHT22;18821;44.800;10.326;2023-06-24T11:55:11;31.50;96.90
32348;DHT22;18821;44.800;10.326;2023-06-24T12:00:14;31.70;96.70
32348;DHT22;18821;44.800;10.326;2023-06-24T12:02:40;31.60;97.10
32348;DHT22;18821;44.800;10.326;2023-06-24T12:05:07;31.80;97.20
32348;DHT22;18821;44.800;10.326;2023-06-24T12:07:33;31.90;98.10
32348;DHT22;18821;44.800;10.326;2023-06-24T12:09:59;31.90;98.60
32348;DHT22;18821;44.800;10.326;2023-06-24T12:12:25;31.90;98.30
32348;DHT22;18821;44.800;10.326;2023-06-24T12:14:51;31.90;97.80
32348;DHT22;18821;44.800;10.326;2023-06-24T12:17:17;31.90;97.60
32348;DHT22;18821;44.800;10.326;2023-06-24T12:19:43;32.00;97.90
32348;DHT22;18821;44.800;10.326;2023-06-24T12:22:09;32.10;97.90
32348;DHT22;18821;44.800;10.326;2023-06-24T12:24:35;32.20;98.00
32348;DHT22;18821;44.800;10.326;2023-06-24T12:27:01;32.20;97.90
32348;DHT22;18821;44.800;10.326;2023-06-24T12:29:27;32.30;97.30
32348;DHT22;18821;44.800;10.326;2023-06-24T12:31:52;32.00;97.30
32348;DHT22;18821;44.800;10.326;2023-06-24T12:34:18;31.70;97.70
32348;DHT22;18821;44.800;10.326;2023-06-24T12:36:46;31.80;97.60
32348;DHT22;18821;44.800;10.326;2023-06-24T12:39:12;32.00;98.10
32348;DHT22;18821;44.800;10.326;2023-06-24T12:41:38;32.00;97.40
32348;DHT22;18821;44.800;10.326;2023-06-24T12:44:04;31.90;97.20
32348;DHT22;18821;44.800;10.326;2023-06-24T12:46:30;31.90;97.30
32348;DHT22;18821;44.800;10.326;2023-06-24T12:48:55;31.80;97.20
32348;DHT22;18821;44.800;10.326;2023-06-24T12:51:22;31.90;97.50
32348;DHT22;18821;44.800;10.326;2023-06-24T12:53:48;32.00;97.40
32348;DHT22;18821;44.800;10.326;2023-06-24T12:56:14;32.00;97.80
32348;DHT22;18821;44.800;10.326;2023-06-24T12:58:40;32.10;97.70
32348;DHT22;18821;44.800;10.326;2023-06-24T13:01:06;32.20;98.00
32348;DHT22;18821;44.800;10.326;2023-06-24T13:03:31;32.20;97.80
32348;DHT22;18821;44.800;10.326;2023-06-24T13:05:57;32.30;97.80
32348;DHT22;18821;44.800;10.326;2023-06-24T13:08:23;32.30;97.70
32348;DHT22;18821;44.800;10.326;2023-06-24T13:10:49;32.30;97.80
32348;DHT22;18821;44.800;10.326;2023-06-24T13:13:15;32.20;97.90
32348;DHT22;18821;44.800;10.326;2023-06-24T13:15:41;32.10;98.10
32348;DHT22;18821;44.800;10.326;2023-06-24T13:18:07;32.00;97.70
32348;DHT22;18821;44.800;10.326;2023-06-24T13:20:33;32.00;98.10
32348;DHT22;18821;44.800;10.326;2023-06-24T13:22:59;32.20;98.20
32348;DHT22;18821;44.800;10.326;2023-06-24T13:25:25;32.50;98.00
32348;DHT22;18821;44.800;10.326;2023-06-24T13:27:51;32.70;97.50
32348;DHT22;18821;44.800;10.326;2023-06-24T13:30:17;32.80;97.00
32348;DHT22;18821;44.800;10.326;2023-06-24T13:32:43;32.80;97.00
32348;DHT22;18821;44.800;10.326;2023-06-24T13:35:09;32.60;96.80
32348;DHT22;18821;44.800;10.326;2023-06-24T13:37:36;32.50;96.30
32348;DHT22;18821;44.800;10.326;2023-06-24T13:40:02;32.40;94.90
32348;DHT22;18821;44.800;10.326;2023-06-24T13:42:28;32.40;95.20
32348;DHT22;18821;44.800;10.326;2023-06-24T13:44:54;32.40;95.60
32348;DHT22;18821;44.800;10.326;2023-06-24T13:47:20;32.20;95.80
32348;DHT22;18821;44.800;10.326;2023-06-24T13:49:46;32.20;95.50
32348;DHT22;18821;44.800;10.326;2023-06-24T13:52:12;32.00;95.60
32348;DHT22;18821;44.800;10.326;2023-06-24T13:54:38;32.00;95.40
32348;DHT22;18821;44.800;10.326;2023-06-24T13:57:04;31.90;96.60
32348;DHT22;18821;44.800;10.326;2023-06-24T13:59:30;32.00;96.80
32348;DHT22;18821;44.800;10.326;2023-06-24T14:01:56;31.90;97.00
32348;DHT22;18821;44.800;10.326;2023-06-24T14:04:22;31.70;96.70
32348;DHT22;18821;44.800;10.326;2023-06-24T14:06:48;31.90;96.90
32348;DHT22;18821;44.800;10.326;2023-06-24T14:09:14;32.00;96.10
32348;DHT22;18821;44.800;10.326;2023-06-24T14:11:40;32.00;96.00
32348;DHT22;18821;44.800;10.326;2023-06-24T14:14:06;32.10;96.50
32348;DHT22;18821;44.800;10.326;2023-06-24T14:16:32;32.00;96.50
32348;DHT22;18821;44.800;10.326;2023-06-24T14:18:57;32.00;96.80
32348;DHT22;18821;44.800;10.326;2023-06-24T14:21:23;32.00;96.80
32348;DHT22;18821;44.800;10.326;2023-06-24T14:23:50;32.00;96.30
32348;DHT22;18821;44.800;10.326;2023-06-24T14:26:16;31.90;96.60
32348;DHT22;18821;44.800;10.326;2023-06-24T14:28:42;32.00;96.90
32348;DHT22;18821;44.800;10.326;2023-06-24T14:31:08;32.20;96.90
32348;DHT22;18821;44.800;10.326;2023-06-24T14:33:33;32.20;96.80
32348;DHT22;18821;44.800;10.326;2023-06-24T14:35:59;32.10;96.50
32348;DHT22;18821;44.800;10.326;2023-06-24T14:38:25;32.00;96.80
32348;DHT22;18821;44.800;10.326;2023-06-24T14:40:51;32.20;96.80
32348;DHT22;18821;44.800;10.326;2023-06-24T14:43:17;32.40;97.00
32348;DHT22;18821;44.800;10.326;2023-06-24T14:45:44;32.50;96.50
32348;DHT22;18821;44.800;10.326;2023-06-24T14:48:10;32.40;96.60
32348;DHT22;18821;44.800;10.326;2023-06-24T14:50:36;32.30;96.10
32348;DHT22;18821;44.800;10.326;2023-06-24T14:53:03;32.30;96.10
32348;DHT22;18821;44.800;10.326;2023-06-24T14:55:29;32.20;95.90
32348;DHT22;18821;44.800;10.326;2023-06-24T14:57:55;31.90;95.90
32348;DHT22;18821;44.800;10.326;2023-06-24T15:00:21;31.70;96.50
32348;DHT22;18821;44.800;10.326;2023-06-24T15:02:46;31.70;96.30
32348;DHT22;18821;44.800;10.326;2023-06-24T15:05:12;32.00;96.40
32348;DHT22;18821;44.800;10.326;2023-06-24T15:07:38;32.20;96.20
32348;DHT22;18821;44.800;10.326;2023-06-24T15:10:05;32.30;96.10
32348;DHT22;18821;44.800;10.326;2023-06-24T15:12:31;32.20;95.90
32348;DHT22;18821;44.800;10.326;2023-06-24T15:14:57;32.20;96.00
32348;DHT22;18821;44.800;10.326;2023-06-24T15:17:23;32.20;96.10
32348;DHT22;18821;44.800;10.326;2023-06-24T15:19:49;32.20;96.00
32348;DHT22;18821;44.800;10.326;2023-06-24T15:22:15;32.20;95.80
32348;DHT22;18821;44.800;10.326;2023-06-24T15:24:42;32.20;95.90
32348;DHT22;18821;44.800;10.326;2023-06-24T15:27:10;32.00;95.40
32348;DHT22;18821;44.800;10.326;2023-06-24T15:29:36;31.90;95.40
32348;DHT22;18821;44.800;10.326;2023-06-24T15:32:02;32.00;95.30
32348;DHT22;18821;44.800;10.326;2023-06-24T15:34:28;32.00;95.40
32348;DHT22;18821;44.800;10.326;2023-06-24T15:36:54;32.00;95.60
32348;DHT22;18821;44.800;10.326;2023-06-24T15:39:20;32.00;95.90
32348;DHT22;18821;44.800;10.326;2023-06-24T15:41:47;32.10;95.90